createdAt,value
2023-04-21T00:00:08.538Z,979.57
2023-04-21T00:01:08.502Z,979.57
2023-04-21T00:02:08.617Z,979.48
2023-04-21T00:03:08.598Z,979.50
2023-04-21T00:04:08.546Z,979.52
2023-04-21T00:05:08.604Z,979.59
2023-04-21T00:06:08.464Z,979.61
2023-04-21T00:07:08.427Z,979.61
2023-04-21T00:08:08.611Z,979.57
2023-04-21T00:09:08.394Z,979.61
2023-04-21T00:10:08.412Z,979.69
2023-04-21T00:11:09.217Z,979.69
2023-04-21T00:12:08.419Z,979.68
2023-04-21T00:13:08.351Z,979.65
2023-04-21T00:14:09.165Z,979.61
2023-04-21T00:15:08.404Z,979.55
2023-04-21T00:16:08.358Z,979.59
2023-04-21T00:17:08.381Z,979.55
2023-04-21T00:18:08.426Z,979.51
2023-04-21T00:19:08.548Z,979.54
2023-04-21T00:20:08.295Z,979.57
2023-04-21T00:21:08.401Z,979.63
2023-04-21T00:22:08.273Z,979.65
2023-04-21T00:23:08.215Z,979.75
2023-04-21T00:24:08.238Z,979.76
2023-04-21T00:25:08.259Z,979.76
2023-04-21T00:26:08.264Z,979.79
2023-04-21T00:27:08.177Z,979.72
2023-04-21T00:28:08.209Z,979.69
2023-04-21T00:29:08.207Z,979.63
2023-04-21T00:30:08.194Z,979.53
2023-04-21T00:31:08.243Z,979.53
2023-04-21T00:32:08.162Z,979.47
2023-04-21T00:33:08.229Z,979.45
2023-04-21T00:34:08.124Z,979.50
2023-04-21T00:35:08.111Z,979.56
2023-04-21T00:36:08.127Z,979.53
2023-04-21T00:37:08.080Z,979.48
2023-04-21T00:38:08.084Z,979.40
2023-04-21T00:39:08.056Z,979.31
2023-04-21T00:40:08.078Z,979.26
2023-04-21T00:41:08.048Z,979.23
2023-04-21T00:42:08.036Z,979.28
2023-04-21T00:43:08.038Z,979.32
2023-04-21T00:44:08.016Z,979.39
2023-04-21T00:45:07.988Z,979.44
2023-04-21T00:46:08.029Z,979.46
2023-04-21T00:47:08.158Z,979.42
2023-04-21T00:48:08.008Z,979.40
2023-04-21T00:49:08.092Z,979.42
2023-04-21T00:50:07.946Z,979.47
2023-04-21T00:51:07.896Z,979.47
2023-04-21T00:52:07.949Z,979.49
2023-04-21T00:53:07.891Z,979.46
2023-04-21T00:54:07.942Z,979.48
2023-04-21T00:55:08.744Z,979.52
2023-04-21T00:56:07.936Z,979.52
2023-04-21T00:57:07.896Z,979.44
2023-04-21T00:58:07.869Z,979.51
2023-04-21T00:59:07.858Z,979.48
2023-04-21T01:00:07.833Z,979.52
2023-04-21T01:01:07.917Z,979.56
2023-04-21T01:02:07.960Z,979.55
2023-04-21T01:03:08.006Z,979.57
2023-04-21T01:04:08.112Z,979.59
2023-04-21T01:05:07.752Z,979.61
2023-04-21T01:06:07.784Z,979.62
2023-04-21T01:07:07.740Z,979.61
2023-04-21T01:08:07.829Z,979.66
2023-04-21T01:09:07.702Z,979.65
2023-04-21T01:10:07.720Z,979.61
2023-04-21T01:11:07.734Z,979.65
2023-04-21T01:12:07.708Z,979.65
2023-04-21T01:13:07.761Z,979.62
2023-04-21T01:14:07.689Z,979.62
2023-04-21T01:15:07.635Z,979.66
2023-04-21T01:16:07.683Z,979.58
2023-04-21T01:17:07.677Z,979.63
2023-04-21T01:18:07.660Z,979.62
2023-04-21T01:19:07.585Z,979.60
2023-04-21T01:20:07.688Z,979.54
2023-04-21T01:21:15.129Z,979.55
2023-04-21T01:22:07.571Z,979.50
2023-04-21T01:23:07.535Z,979.52
2023-04-21T01:24:07.543Z,979.47
2023-04-21T01:25:07.537Z,979.46
2023-04-21T01:26:07.542Z,979.41
2023-04-21T01:27:07.489Z,979.39
2023-04-21T01:28:07.529Z,979.40
2023-04-21T01:29:07.473Z,979.40
2023-04-21T01:30:07.509Z,979.40
2023-04-21T01:31:07.457Z,979.40
2023-04-21T01:32:07.512Z,979.39
2023-04-21T01:33:07.466Z,979.42
2023-04-21T01:34:07.452Z,979.46
2023-04-21T01:35:07.411Z,979.44
2023-04-21T01:36:07.481Z,979.44
2023-04-21T01:37:07.388Z,979.42
2023-04-21T01:38:07.405Z,979.43
2023-04-21T01:39:07.369Z,979.40
2023-04-21T01:40:07.371Z,979.45
2023-04-21T01:41:07.338Z,979.47
2023-04-21T01:42:07.330Z,979.49
2023-04-21T01:43:07.310Z,979.56
2023-04-21T01:44:07.321Z,979.51
2023-04-21T01:45:07.309Z,979.52
2023-04-21T01:46:07.562Z,979.48
2023-04-21T01:47:07.288Z,979.53
2023-04-21T01:48:07.338Z,979.48
2023-04-21T01:49:07.230Z,979.53
2023-04-21T01:50:07.382Z,979.55
2023-04-21T01:51:07.388Z,979.48
2023-04-21T01:52:07.237Z,979.45
2023-04-21T01:53:07.181Z,979.45
2023-04-21T01:54:07.301Z,979.46
2023-04-21T01:55:07.189Z,979.43
2023-04-21T01:56:07.177Z,979.39
2023-04-21T01:57:07.414Z,979.43
2023-04-21T01:58:07.322Z,979.47
2023-04-21T01:59:07.176Z,979.46
2023-04-21T02:00:07.169Z,979.48
2023-04-21T02:01:07.157Z,979.48
2023-04-21T02:02:07.289Z,979.49
2023-04-21T02:03:07.214Z,979.46
2023-04-21T02:04:07.251Z,979.51
2023-04-21T02:05:07.055Z,979.47
2023-04-21T02:06:07.122Z,979.49
2023-04-21T02:07:07.369Z,979.43
2023-04-21T02:08:07.154Z,979.47
2023-04-21T02:09:07.047Z,979.46
2023-04-21T02:10:07.252Z,979.51
2023-04-21T02:11:06.962Z,979.52
2023-04-21T02:12:07.243Z,979.49
2023-04-21T02:13:06.989Z,979.44
2023-04-21T02:14:07.027Z,979.41
2023-04-21T02:15:07.020Z,979.41
2023-04-21T02:16:13.877Z,979.39
2023-04-21T02:17:08.975Z,979.41
2023-04-21T02:18:07.142Z,979.40
2023-04-21T02:19:06.959Z,979.36
2023-04-21T02:20:06.929Z,979.36
2023-04-21T02:21:06.887Z,979.42
2023-04-21T02:22:06.929Z,979.43
2023-04-21T02:23:06.934Z,979.43
2023-04-21T02:24:06.920Z,979.44
2023-04-21T02:25:07.178Z,979.41
2023-04-21T02:26:06.884Z,979.42
2023-04-21T02:27:06.820Z,979.41
2023-04-21T02:28:06.870Z,979.44
2023-04-21T02:29:06.822Z,979.42
2023-04-21T02:30:06.900Z,979.42
2023-04-21T02:31:06.786Z,979.41
2023-04-21T02:33:06.791Z,979.44
2023-04-21T02:34:06.722Z,979.44
2023-04-21T02:35:06.719Z,979.46
2023-04-21T02:36:06.683Z,979.47
2023-04-21T02:37:06.716Z,979.50
2023-04-21T02:38:06.685Z,979.46
2023-04-21T02:39:06.678Z,979.51
2023-04-21T02:40:06.644Z,979.52
2023-04-21T02:41:06.755Z,979.56
2023-04-21T02:42:06.702Z,979.60
2023-04-21T02:43:06.676Z,979.57
2023-04-21T02:44:06.617Z,979.56
2023-04-21T02:45:06.594Z,979.59
2023-04-21T02:46:06.623Z,979.60
2023-04-21T02:47:06.612Z,979.63
2023-04-21T02:48:06.655Z,979.58
2023-04-21T02:49:06.563Z,979.55
2023-04-21T02:50:06.520Z,979.53
2023-04-21T02:51:06.585Z,979.49
2023-04-21T02:52:06.551Z,979.50
2023-04-21T02:53:06.528Z,979.58
2023-04-21T02:54:06.513Z,979.58
2023-04-21T02:55:06.492Z,979.59
2023-04-21T02:56:06.451Z,979.64
2023-04-21T02:57:06.457Z,979.60
2023-04-21T02:58:06.607Z,979.61
2023-04-21T02:59:06.436Z,979.59
2023-04-21T03:00:06.397Z,979.59
2023-04-21T03:01:06.506Z,979.58
2023-04-21T03:02:06.393Z,979.60
2023-04-21T03:03:06.474Z,979.65
2023-04-21T03:04:06.629Z,979.62
2023-04-21T03:05:06.511Z,979.61
2023-04-21T03:06:06.382Z,979.62
2023-04-21T03:07:06.391Z,979.58
2023-04-21T03:08:06.341Z,979.59
2023-04-21T03:09:06.400Z,979.56
2023-04-21T03:10:06.337Z,979.61
2023-04-21T03:11:06.359Z,979.60
2023-04-21T03:12:06.276Z,979.60
2023-04-21T03:13:06.376Z,979.59
2023-04-21T03:14:06.683Z,979.59
2023-04-21T03:15:06.356Z,979.60
2023-04-21T03:16:06.285Z,979.57
2023-04-21T03:17:06.271Z,979.55
2023-04-21T03:18:06.385Z,979.57
2023-04-21T03:19:06.911Z,979.59
2023-04-21T03:20:06.387Z,979.58
2023-04-21T03:21:06.201Z,979.58
2023-04-21T03:22:06.340Z,979.54
2023-04-21T03:23:06.234Z,979.56
2023-04-21T03:24:06.216Z,979.48
2023-04-21T03:25:06.162Z,979.43
2023-04-21T03:26:06.173Z,979.48
2023-04-21T03:27:06.165Z,979.46
2023-04-21T03:28:06.318Z,979.49
2023-04-21T03:29:06.237Z,979.50
2023-04-21T03:30:06.175Z,979.51
2023-04-21T03:31:06.208Z,979.53
2023-04-21T03:32:06.494Z,979.49
2023-04-21T03:33:06.093Z,979.49
2023-04-21T03:34:06.072Z,979.50
2023-04-21T03:35:06.130Z,979.50
2023-04-21T03:36:06.003Z,979.54
2023-04-21T03:37:06.046Z,979.48
2023-04-21T03:38:05.988Z,979.51
2023-04-21T03:39:20.578Z,979.46
2023-04-21T03:40:06.957Z,979.43
2023-04-21T03:41:06.170Z,979.46
2023-04-21T03:42:05.971Z,979.43
2023-04-21T03:43:05.969Z,979.48
2023-04-21T03:44:06.020Z,979.47
2023-04-21T03:45:05.934Z,979.50
2023-04-21T03:46:06.018Z,979.53
2023-04-21T03:47:05.998Z,979.53
2023-04-21T03:48:05.906Z,979.53
2023-04-21T03:49:05.940Z,979.50
2023-04-21T03:50:05.901Z,979.53
2023-04-21T03:51:05.932Z,979.51
2023-04-21T03:52:05.884Z,979.55
2023-04-21T03:53:05.801Z,979.54
2023-04-21T03:54:05.814Z,979.53
2023-04-21T03:55:05.798Z,979.54
2023-04-21T03:56:05.905Z,979.54
2023-04-21T03:57:05.759Z,979.51
2023-04-21T03:58:05.784Z,979.49
2023-04-21T03:59:05.777Z,979.54
2023-04-21T04:00:05.771Z,979.50
2023-04-21T04:01:05.767Z,979.47
2023-04-21T04:02:05.743Z,979.48
2023-04-21T04:03:06.007Z,979.52
2023-04-21T04:04:05.856Z,979.49
2023-04-21T04:05:05.708Z,979.49
2023-04-21T04:06:05.711Z,979.50
2023-04-21T04:07:05.703Z,979.48
2023-04-21T04:08:05.697Z,979.47
2023-04-21T04:09:05.895Z,979.51
2023-04-21T04:10:05.678Z,979.49
2023-04-21T04:11:05.621Z,979.49
2023-04-21T04:12:05.610Z,979.50
2023-04-21T04:13:06.013Z,979.49
2023-04-21T04:14:05.533Z,979.46
2023-04-21T04:15:05.736Z,979.50
2023-04-21T04:16:05.587Z,979.46
2023-04-21T04:17:05.584Z,979.48
2023-04-21T04:18:05.594Z,979.53
2023-04-21T04:19:05.710Z,979.48
2023-04-21T04:20:05.541Z,979.51
2023-04-21T04:21:05.508Z,979.52
2023-04-21T04:22:05.700Z,979.51
2023-04-21T04:23:05.489Z,979.49
2023-04-21T04:24:05.725Z,979.42
2023-04-21T04:25:05.513Z,979.37
2023-04-21T04:26:05.574Z,979.45
2023-04-21T04:27:05.412Z,979.47
2023-04-21T04:28:05.533Z,979.43
2023-04-21T04:29:05.637Z,979.51
2023-04-21T04:30:05.421Z,979.53
2023-04-21T04:31:05.444Z,979.55
2023-04-21T04:32:05.352Z,979.52
2023-04-21T04:33:05.408Z,979.51
2023-04-21T04:34:05.322Z,979.48
2023-04-21T04:35:05.349Z,979.51
2023-04-21T04:36:05.293Z,979.48
2023-04-21T04:37:05.434Z,979.54
2023-04-21T04:38:05.273Z,979.55
2023-04-21T04:39:06.293Z,979.58
2023-04-21T04:40:05.623Z,979.51
2023-04-21T04:41:05.268Z,979.51
2023-04-21T04:42:05.445Z,979.51
2023-04-21T04:43:05.363Z,979.50
2023-04-21T04:44:05.287Z,979.47
2023-04-21T04:45:05.213Z,979.47
2023-04-21T04:46:05.171Z,979.50
2023-04-21T04:47:05.320Z,979.44
2023-04-21T04:48:05.225Z,979.41
2023-04-21T04:49:05.250Z,979.48
2023-04-21T04:50:05.169Z,979.48
2023-04-21T04:51:05.158Z,979.43
2023-04-21T04:52:05.117Z,979.49
2023-04-21T04:53:05.220Z,979.52
2023-04-21T04:54:05.122Z,979.55
2023-04-21T04:55:05.149Z,979.54
2023-04-21T04:56:05.092Z,979.58
2023-04-21T04:57:05.195Z,979.58
2023-04-21T04:58:05.038Z,979.53
2023-04-21T04:59:05.059Z,979.53
2023-04-21T05:00:05.025Z,979.55
2023-04-21T05:01:05.022Z,979.55
2023-04-21T05:02:05.060Z,979.49
2023-04-21T05:03:05.201Z,979.51
2023-04-21T05:04:05.279Z,979.55
2023-04-21T05:05:05.071Z,979.54
2023-04-21T05:06:04.974Z,979.57
2023-04-21T05:07:04.969Z,979.59
2023-04-21T05:08:04.947Z,979.56
2023-04-21T05:09:04.980Z,979.58
2023-04-21T05:10:04.927Z,979.61
2023-04-21T05:11:04.998Z,979.59
2023-04-21T05:12:04.911Z,979.60
2023-04-21T05:13:04.952Z,979.59
2023-04-21T05:14:04.866Z,979.64
2023-04-21T05:15:04.928Z,979.63
2023-04-21T05:16:04.877Z,979.60
2023-04-21T05:17:04.983Z,979.61
2023-04-21T05:18:05.003Z,979.56
2023-04-21T05:19:04.833Z,979.53
2023-04-21T05:20:04.846Z,979.57
2023-04-21T05:21:04.783Z,979.56
2023-04-21T05:22:04.799Z,979.57
2023-04-21T05:23:04.866Z,979.60
2023-04-21T05:24:04.868Z,979.63
2023-04-21T05:25:04.802Z,979.66
2023-04-21T05:26:05.140Z,979.68
2023-04-21T05:27:04.742Z,979.76
2023-04-21T05:28:04.697Z,979.71
2023-04-21T05:29:04.723Z,979.69
2023-04-21T05:30:04.669Z,979.68
2023-04-21T05:31:04.700Z,979.68
2023-04-21T05:32:04.754Z,979.66
2023-04-21T05:33:04.689Z,979.60
2023-04-21T05:34:04.646Z,979.65
2023-04-21T05:35:05.046Z,979.59
2023-04-21T05:36:04.806Z,979.59
2023-04-21T05:37:04.682Z,979.54
2023-04-21T05:38:04.723Z,979.52
2023-04-21T05:39:04.810Z,979.54
2023-04-21T05:40:04.919Z,979.60
2023-04-21T05:41:05.313Z,979.57
2023-04-21T05:42:04.574Z,979.60
2023-04-21T05:43:05.475Z,979.58
2023-04-21T05:44:04.538Z,979.55
2023-04-21T05:45:05.304Z,979.57
2023-04-21T05:46:04.892Z,979.48
2023-04-21T05:47:05.245Z,979.45
2023-04-21T05:48:04.551Z,979.51
2023-04-21T05:49:04.493Z,979.41
2023-04-21T05:50:04.429Z,979.42
2023-04-21T05:51:04.495Z,979.42
2023-04-21T05:52:04.409Z,979.43
2023-04-21T05:53:04.463Z,979.40
2023-04-21T05:54:04.406Z,979.47
2023-04-21T05:55:04.402Z,979.48
2023-04-21T05:56:04.388Z,979.50
2023-04-21T05:57:04.378Z,979.50
2023-04-21T05:58:04.349Z,979.53
2023-04-21T05:59:04.367Z,979.55
2023-04-21T06:00:04.324Z,979.51
2023-04-21T06:01:05.294Z,979.43
2023-04-21T06:02:04.471Z,979.45
2023-04-21T06:03:04.518Z,979.45
2023-04-21T06:04:04.808Z,979.42
2023-04-21T06:05:04.572Z,979.40
2023-04-21T06:06:04.286Z,979.43
2023-04-21T06:07:05.368Z,979.39
2023-04-21T06:08:04.227Z,979.34
2023-04-21T06:09:04.242Z,979.35
2023-04-21T06:10:04.217Z,979.35
2023-04-21T06:11:04.212Z,979.39
2023-04-21T06:12:04.214Z,979.44
2023-04-21T06:13:04.862Z,979.45
2023-04-21T06:14:04.209Z,979.45
2023-04-21T06:15:04.429Z,979.46
2023-04-21T06:16:04.194Z,979.45
2023-04-21T06:17:04.165Z,979.45
2023-04-21T06:18:04.162Z,979.50
2023-04-21T06:19:04.173Z,979.46
2023-04-21T06:20:04.184Z,979.47
2023-04-21T06:21:04.110Z,979.46
2023-04-21T06:22:04.078Z,979.45
2023-04-21T06:23:04.090Z,979.46
2023-04-21T06:24:04.065Z,979.49
2023-04-21T06:25:04.075Z,979.44
2023-04-21T06:26:04.020Z,979.48
2023-04-21T06:27:04.051Z,979.45
2023-04-21T06:28:04.022Z,979.42
2023-04-21T06:29:04.083Z,979.40
2023-04-21T06:30:04.834Z,979.41
2023-04-21T06:31:08.000Z,979.28
2023-04-21T06:32:04.119Z,979.29
2023-04-21T06:33:04.006Z,979.30
2023-04-21T06:34:03.996Z,979.31
2023-04-21T06:35:03.981Z,979.35
2023-04-21T06:36:03.961Z,979.37
2023-04-21T06:37:03.929Z,979.35
2023-04-21T06:38:03.906Z,979.33
2023-04-21T06:39:03.934Z,979.34
2023-04-21T06:40:03.875Z,979.32
2023-04-21T06:41:03.876Z,979.36
2023-04-21T06:42:04.321Z,979.38
2023-04-21T06:43:03.860Z,979.35
2023-04-21T06:44:03.932Z,979.31
2023-04-21T06:45:03.829Z,979.30
2023-04-21T06:46:03.824Z,979.33
2023-04-21T06:47:03.829Z,979.32
2023-04-21T06:48:03.865Z,979.26
2023-04-21T06:49:03.778Z,979.30
2023-04-21T06:50:03.809Z,979.33
2023-04-21T06:51:03.763Z,979.33
2023-04-21T06:52:03.749Z,979.35
2023-04-21T06:53:03.732Z,979.37
2023-04-21T06:54:03.865Z,979.35
2023-04-21T06:55:03.697Z,979.37
2023-04-21T06:56:03.707Z,979.37
2023-04-21T06:57:03.696Z,979.37
2023-04-21T06:58:03.682Z,979.34
2023-04-21T06:59:03.667Z,979.35
2023-04-21T07:00:03.700Z,979.38
2023-04-21T07:01:03.790Z,979.40
2023-04-21T07:02:03.744Z,979.45
2023-04-21T07:03:03.687Z,979.48
2023-04-21T07:04:03.807Z,979.42
2023-04-21T07:05:03.605Z,979.42
2023-04-21T07:06:03.606Z,979.45
2023-04-21T07:07:03.578Z,979.36
2023-04-21T07:08:03.573Z,979.38
2023-04-21T07:09:03.550Z,979.30
2023-04-21T07:10:03.550Z,979.28
2023-04-21T07:11:03.561Z,979.23
2023-04-21T07:12:03.584Z,979.24
2023-04-21T07:13:03.513Z,979.25
2023-04-21T07:14:03.505Z,979.25
2023-04-21T07:15:03.480Z,979.27
2023-04-21T07:16:03.490Z,979.28
2023-04-21T07:17:03.532Z,979.24
2023-04-21T07:18:03.579Z,979.23
2023-04-21T07:19:03.425Z,979.26
2023-04-21T07:20:03.437Z,979.20
2023-04-21T07:21:03.418Z,979.23
2023-04-21T07:22:03.416Z,979.25
2023-04-21T07:23:03.404Z,979.24
2023-04-21T07:24:03.456Z,979.25
2023-04-21T07:25:03.451Z,979.24
2023-04-21T07:26:03.390Z,979.22
2023-04-21T07:27:03.338Z,979.22
2023-04-21T07:28:03.356Z,979.21
2023-04-21T07:29:03.300Z,979.24
2023-04-21T07:30:03.354Z,979.22
2023-04-21T07:31:03.681Z,979.23
2023-04-21T07:32:03.305Z,979.23
2023-04-21T07:33:03.312Z,979.25
2023-04-21T07:34:03.284Z,979.27
2023-04-21T07:35:03.262Z,979.27
2023-04-21T07:36:03.270Z,979.28
2023-04-21T07:37:03.217Z,979.25
2023-04-21T07:38:03.318Z,979.26
2023-04-21T07:39:03.237Z,979.25
2023-04-21T07:40:03.227Z,979.20
2023-04-21T07:41:03.184Z,979.27
2023-04-21T07:42:03.964Z,979.26
2023-04-21T07:43:03.458Z,979.27
2023-04-21T07:44:03.178Z,979.27
2023-04-21T07:45:03.166Z,979.29
2023-04-21T07:46:03.174Z,979.32
2023-04-21T07:47:03.111Z,979.33
2023-04-21T07:48:03.237Z,979.33
2023-04-21T07:49:04.141Z,979.33
2023-04-21T07:50:03.095Z,979.32
2023-04-21T07:51:03.042Z,979.31
2023-04-21T07:52:03.083Z,979.38
2023-04-21T07:53:03.037Z,979.42
2023-04-21T07:54:03.054Z,979.41
2023-04-21T07:55:03.052Z,979.41
2023-04-21T07:56:03.030Z,979.40
2023-04-21T07:57:02.977Z,979.37
2023-04-21T07:58:02.996Z,979.32
2023-04-21T07:59:02.964Z,979.28
2023-04-21T08:00:02.974Z,979.30
2023-04-21T08:01:02.934Z,979.34
2023-04-21T08:02:03.018Z,979.39
2023-04-21T08:03:02.968Z,979.44
2023-04-21T08:04:03.006Z,979.46
2023-04-21T08:05:02.969Z,979.45
2023-04-21T08:06:03.375Z,979.46
2023-04-21T08:07:03.059Z,979.44
2023-04-21T08:08:02.905Z,979.42
2023-04-21T08:09:02.896Z,979.45
2023-04-21T08:10:02.861Z,979.44
2023-04-21T08:11:02.880Z,979.42
2023-04-21T08:12:02.871Z,979.44
2023-04-21T08:13:02.805Z,979.41
2023-04-21T08:14:02.841Z,979.41
2023-04-21T08:15:02.792Z,979.42
2023-04-21T08:16:02.821Z,979.37
2023-04-21T08:17:02.867Z,979.42
2023-04-21T08:18:02.825Z,979.42
2023-04-21T08:19:02.790Z,979.35
2023-04-21T08:20:02.747Z,979.42
2023-04-21T08:21:02.729Z,979.42
2023-04-21T08:22:02.731Z,979.44
2023-04-21T08:23:02.737Z,979.47
2023-04-21T08:24:02.754Z,979.45
2023-04-21T08:25:02.696Z,979.43
2023-04-21T08:26:02.710Z,979.44
2023-04-21T08:27:02.658Z,979.43
2023-04-21T08:28:02.673Z,979.44
2023-04-21T08:29:04.339Z,979.50
2023-04-21T08:30:02.850Z,979.47
2023-04-21T08:31:02.801Z,979.51
2023-04-21T08:32:02.668Z,979.50
2023-04-21T08:33:10.683Z,979.48
2023-04-21T08:34:03.158Z,979.46
2023-04-21T08:35:02.574Z,979.45
2023-04-21T08:36:05.803Z,979.42
2023-04-21T08:37:03.558Z,979.46
2023-04-21T08:38:02.568Z,979.49
2023-04-21T08:39:02.564Z,979.48
2023-04-21T08:40:02.564Z,979.51
2023-04-21T08:41:02.507Z,979.48
2023-04-21T08:42:02.516Z,979.52
2023-04-21T08:43:02.609Z,979.54
2023-04-21T08:44:02.487Z,979.48
2023-04-21T08:45:02.482Z,979.49
2023-04-21T08:46:03.339Z,979.49
2023-04-21T08:47:02.501Z,979.49
2023-04-21T08:48:02.524Z,979.54
2023-04-21T08:49:02.427Z,979.48
2023-04-21T08:50:02.463Z,979.48
2023-04-21T08:51:02.388Z,979.55
2023-04-21T08:52:02.402Z,979.49
2023-04-21T08:53:02.474Z,979.52
2023-04-21T08:54:02.402Z,979.54
2023-04-21T08:55:02.370Z,979.55
2023-04-21T08:56:10.788Z,979.49
2023-04-21T08:57:14.184Z,979.55
2023-04-21T08:58:03.356Z,979.49
2023-04-21T08:59:02.308Z,979.47
2023-04-21T09:00:02.431Z,979.48
2023-04-21T09:01:02.262Z,979.48
2023-04-21T09:02:02.449Z,979.47
2023-04-21T09:03:02.805Z,979.51
2023-04-21T09:04:02.388Z,979.47
2023-04-21T09:05:02.608Z,979.43
2023-04-21T09:06:02.747Z,979.48
2023-04-21T09:07:02.222Z,979.51
2023-04-21T09:08:02.326Z,979.50
2023-04-21T09:09:02.209Z,979.56
2023-04-21T09:10:02.245Z,979.56
2023-04-21T09:11:02.202Z,979.52
2023-04-21T09:12:02.256Z,979.47
2023-04-21T09:13:02.157Z,979.46
2023-04-21T09:14:02.170Z,979.38
2023-04-21T09:15:02.197Z,979.37
2023-04-21T09:16:02.271Z,979.39
2023-04-21T09:17:02.130Z,979.42
2023-04-21T09:18:02.206Z,979.38
2023-04-21T09:19:02.078Z,979.38
2023-04-21T09:20:02.148Z,979.37
2023-04-21T09:21:02.057Z,979.39
2023-04-21T09:22:02.097Z,979.36
2023-04-21T09:23:02.141Z,979.35
2023-04-21T09:24:02.051Z,979.36
2023-04-21T09:25:02.065Z,979.34
2023-04-21T09:26:02.779Z,979.36
2023-04-21T09:27:02.920Z,979.40
2023-04-21T09:28:02.110Z,979.38
2023-04-21T09:29:02.802Z,979.34
2023-04-21T09:30:01.980Z,979.40
2023-04-21T09:31:02.018Z,979.38
2023-04-21T09:32:02.800Z,979.42
2023-04-21T09:33:03.315Z,979.43
2023-04-21T09:34:02.021Z,979.41
2023-04-21T09:35:01.919Z,979.40
2023-04-21T09:36:01.930Z,979.44
2023-04-21T09:37:01.895Z,979.44
2023-04-21T09:38:01.916Z,979.44
2023-04-21T09:40:05.068Z,979.46
2023-04-21T09:41:01.887Z,979.45
2023-04-21T09:42:01.859Z,979.42
2023-04-21T09:43:01.830Z,979.40
2023-04-21T09:44:02.121Z,979.44
2023-04-21T09:45:23.660Z,979.39
2023-04-21T09:46:02.886Z,979.38
2023-04-21T09:47:01.789Z,979.39
2023-04-21T09:48:01.949Z,979.39
2023-04-21T09:49:01.751Z,979.39
2023-04-21T09:50:02.656Z,979.36
2023-04-21T09:51:27.211Z,979.36
2023-04-21T09:53:01.748Z,979.36
2023-04-21T09:54:01.715Z,979.33
2023-04-21T09:55:01.697Z,979.29
2023-04-21T09:56:01.713Z,979.33
2023-04-21T09:57:01.880Z,979.33
2023-04-21T09:58:01.672Z,979.33
2023-04-21T09:59:01.635Z,979.35
2023-04-21T10:00:01.734Z,979.32
2023-04-21T10:01:01.658Z,979.31
2023-04-21T10:02:01.760Z,979.35
2023-04-21T10:03:01.750Z,979.38
2023-04-21T10:04:01.710Z,979.34
2023-04-21T10:05:01.835Z,979.35
2023-04-21T10:06:01.637Z,979.36
2023-04-21T10:07:01.628Z,979.29
2023-04-21T10:08:01.567Z,979.27
2023-04-21T10:09:01.504Z,979.25
2023-04-21T10:10:01.700Z,979.31
2023-04-21T10:11:01.547Z,979.31
2023-04-21T10:12:01.525Z,979.29
2023-04-21T10:13:01.581Z,979.30
2023-04-21T10:14:01.490Z,979.24
2023-04-21T10:15:01.525Z,979.23
2023-04-21T10:16:01.547Z,979.24
2023-04-21T10:17:01.456Z,979.28
2023-04-21T10:18:01.449Z,979.26
2023-04-21T10:19:01.551Z,979.29
2023-04-21T10:20:01.437Z,979.27
2023-04-21T10:21:01.509Z,979.28
2023-04-21T10:22:01.432Z,979.27
2023-04-21T10:23:01.609Z,979.25
2023-04-21T10:24:01.418Z,979.20
2023-04-21T10:25:01.347Z,979.23
2023-04-21T10:26:01.351Z,979.24
2023-04-21T10:27:01.359Z,979.20
2023-04-21T10:28:02.090Z,979.12
2023-04-21T10:29:01.366Z,979.09
2023-04-21T10:30:02.247Z,979.10
2023-04-21T10:31:01.291Z,979.08
2023-04-21T10:32:01.466Z,979.11
2023-04-21T10:33:01.318Z,979.05
2023-04-21T10:34:01.323Z,979.08
2023-04-21T10:35:01.232Z,979.10
2023-04-21T10:36:01.313Z,979.09
2023-04-21T10:37:01.248Z,979.04
2023-04-21T10:38:01.249Z,979.03
2023-04-21T10:39:01.167Z,979.03
2023-04-21T10:40:01.207Z,978.97
2023-04-21T10:41:01.230Z,979.03
2023-04-21T10:42:01.169Z,979.00
2023-04-21T10:43:01.141Z,978.92
2023-04-21T10:44:01.283Z,978.94
2023-04-21T10:45:01.187Z,978.90
2023-04-21T10:46:01.125Z,978.95
2023-04-21T10:47:01.213Z,978.98
2023-04-21T10:48:01.302Z,978.99
2023-04-21T10:49:01.289Z,978.94
2023-04-21T10:50:01.136Z,978.92
2023-04-21T10:51:01.068Z,978.90
2023-04-21T10:52:01.209Z,978.91
2023-04-21T10:53:01.150Z,978.85
2023-04-21T10:54:01.014Z,978.85
2023-04-21T10:55:01.005Z,978.82
2023-04-21T10:56:00.982Z,978.85
2023-04-21T10:57:01.003Z,978.82
2023-04-21T10:58:01.022Z,978.82
2023-04-21T10:59:00.988Z,978.77
2023-04-21T11:00:00.988Z,978.75
2023-04-21T11:01:00.994Z,978.75
2023-04-21T11:02:01.108Z,978.78
2023-04-21T11:03:01.112Z,978.70
2023-04-21T11:04:01.024Z,978.67
2023-04-21T11:05:01.185Z,978.73
2023-04-21T11:06:00.966Z,978.79
2023-04-21T11:07:00.913Z,978.77
2023-04-21T11:08:00.874Z,978.78
2023-04-21T11:09:00.886Z,978.76
2023-04-21T11:10:00.866Z,978.75
2023-04-21T11:11:00.912Z,978.72
2023-04-21T11:12:00.857Z,978.66
2023-04-21T11:13:00.839Z,978.65
2023-04-21T11:14:01.069Z,978.57
2023-04-21T11:15:00.848Z,978.56
2023-04-21T11:16:01.047Z,978.55
2023-04-21T11:17:01.076Z,978.69
2023-04-21T11:18:00.765Z,978.65
2023-04-21T11:19:00.771Z,978.67
2023-04-21T11:20:00.726Z,978.61
2023-04-21T11:21:00.724Z,978.54
2023-04-21T11:22:00.763Z,978.61
2023-04-21T11:23:00.788Z,978.62
2023-04-21T11:24:00.682Z,978.63
2023-04-21T11:25:00.681Z,978.61
2023-04-21T11:26:00.667Z,978.65
2023-04-21T11:27:00.764Z,978.61
2023-04-21T11:28:00.640Z,978.63
2023-04-21T11:29:00.933Z,978.55
2023-04-21T11:30:00.601Z,978.55
2023-04-21T11:31:00.700Z,978.53
2023-04-21T11:32:00.660Z,978.51
2023-04-21T11:33:00.656Z,978.50
2023-04-21T11:34:00.629Z,978.48
2023-04-21T11:35:00.644Z,978.46
2023-04-21T11:36:00.539Z,978.41
2023-04-21T11:37:00.650Z,978.41
2023-04-21T11:38:00.564Z,978.45
2023-04-21T11:39:00.627Z,978.40
2023-04-21T11:40:00.601Z,978.37
2023-04-21T11:41:00.647Z,978.37
2023-04-21T11:42:00.470Z,978.36
2023-04-21T11:43:00.482Z,978.34
2023-04-21T11:44:00.419Z,978.29
2023-04-21T11:45:00.551Z,978.33
2023-04-21T11:46:00.493Z,978.34
2023-04-21T11:47:00.505Z,978.30
2023-04-21T11:48:00.426Z,978.29
2023-04-21T11:49:00.429Z,978.34
2023-04-21T11:50:01.270Z,978.31
2023-04-21T11:51:00.361Z,978.30
2023-04-21T11:52:00.452Z,978.33
2023-04-21T11:53:00.383Z,978.28
2023-04-21T11:54:00.393Z,978.26
2023-04-21T11:55:00.323Z,978.27
2023-04-21T11:56:00.366Z,978.29
2023-04-21T11:57:02.445Z,978.33
2023-04-21T11:58:00.270Z,978.46
2023-04-21T11:59:00.332Z,978.32
2023-04-21T12:00:00.315Z,978.33
2023-04-21T12:01:00.289Z,978.44
2023-04-21T12:02:00.300Z,978.32
2023-04-21T12:03:00.542Z,978.27
2023-04-21T12:04:00.488Z,978.30
2023-04-21T12:05:00.622Z,978.29
2023-04-21T12:06:00.427Z,978.26
2023-04-21T12:07:00.181Z,978.26
2023-04-21T12:08:00.472Z,978.25
2023-04-21T12:09:00.246Z,978.20
2023-04-21T12:10:01.206Z,978.19
2023-04-21T12:11:00.989Z,978.19
2023-04-21T12:12:00.184Z,978.20
2023-04-21T12:13:00.151Z,978.31
2023-04-21T12:14:00.176Z,978.14
2023-04-21T12:15:00.163Z,978.15
2023-04-21T12:16:00.218Z,978.10
2023-04-21T12:17:00.116Z,978.16
2023-04-21T12:18:00.077Z,978.14
2023-04-21T12:19:00.037Z,978.13
2023-04-21T12:20:00.096Z,978.09
2023-04-21T12:21:00.053Z,978.12
2023-04-21T12:22:00.004Z,978.12
2023-04-21T12:23:00.048Z,978.11
2023-04-21T12:23:59.994Z,978.10
2023-04-21T12:24:59.991Z,978.08
2023-04-21T12:26:00.047Z,978.07
2023-04-21T12:26:59.980Z,978.04
2023-04-21T12:27:59.965Z,978.09
2023-04-21T12:29:00.007Z,978.01
2023-04-21T12:29:59.921Z,978.01
2023-04-21T12:30:59.935Z,978.00